createdAt,value
2022-12-16T00:05:39.949Z,33.4
2022-12-16T00:11:23.312Z,33.4
2022-12-16T00:16:50.425Z,33.4
2022-12-16T00:22:30.255Z,33.3
2022-12-16T00:28:12.410Z,33.3
2022-12-16T00:33:51.467Z,33.3
2022-12-16T00:39:32.645Z,33.3
2022-12-16T00:50:19.739Z,33.2
2022-12-16T00:55:44.538Z,33.2
2022-12-16T01:01:08.534Z,33.1
2022-12-16T01:11:28.544Z,33.1
2022-12-16T01:21:27.850Z,33.1
2022-12-16T01:27:07.467Z,33
2022-12-16T01:32:45.790Z,33
2022-12-16T01:38:54.215Z,32.9
2022-12-16T01:44:37.174Z,32.9
2022-12-16T01:50:00.177Z,32.9
2022-12-16T01:55:21.798Z,32.9
2022-12-16T02:01:00.345Z,32.9
2022-12-16T02:06:23.927Z,33
2022-12-16T02:11:31.406Z,33.4
2022-12-16T02:26:54.452Z,35.1
2022-12-16T02:32:43.294Z,35.8
2022-12-16T02:37:35.848Z,36.4
2022-12-16T02:43:01.045Z,37.1
2022-12-16T02:48:41.665Z,37.8
2022-12-16T02:54:18.768Z,38.5
2022-12-16T02:59:24.641Z,39.2
2022-12-16T03:05:04.141Z,39.9
2022-12-16T03:10:41.283Z,40.3
2022-12-16T03:16:04.134Z,40.3
2022-12-16T03:21:45.006Z,40.4
2022-12-16T03:27:22.621Z,40.6
2022-12-16T03:32:45.170Z,40.6
2022-12-16T03:38:23.448Z,40.6
2022-12-16T03:43:45.928Z,40.6
2022-12-16T03:49:13.609Z,40.6
2022-12-16T03:54:53.149Z,40.6
2022-12-16T04:00:36.728Z,40.6
2022-12-16T04:06:17.529Z,40.5
2022-12-16T04:11:59.271Z,40.4
2022-12-16T04:17:39.160Z,40.4
2022-12-16T04:23:20.528Z,40.4
2022-12-16T04:28:58.609Z,40.4
2022-12-16T04:34:37.403Z,40.3
2022-12-16T04:40:15.096Z,40.3
2022-12-16T04:51:20.737Z,40.3
2022-12-16T05:01:49.370Z,40.2
2022-12-16T05:07:30.050Z,40.2
2022-12-16T05:13:08.792Z,40.1
2022-12-16T05:18:47.997Z,40.1
2022-12-16T05:29:56.821Z,40.1
2022-12-16T05:35:23.128Z,40
2022-12-16T05:41:01.091Z,39.9
2022-12-16T05:46:41.249Z,39.9
2022-12-16T05:52:08.137Z,39.9
2022-12-16T05:57:46.501Z,39.8
2022-12-16T06:03:25.613Z,39.8
2022-12-16T06:08:34.471Z,39.8
2022-12-16T06:14:12.439Z,39.7
2022-12-16T06:19:50.132Z,39.7
2022-12-16T06:25:32.358Z,39.6
2022-12-16T06:30:58.697Z,39.6
2022-12-16T06:36:41.008Z,39.6
2022-12-16T06:42:22.408Z,39.6
2022-12-16T06:48:03.684Z,39.5
2022-12-16T06:53:47.498Z,39.4
2022-12-16T06:59:31.229Z,39.4
2022-12-16T07:04:42.111Z,39.3
2022-12-16T07:10:21.130Z,38.9
2022-12-16T07:16:04.967Z,38.6
2022-12-16T07:21:47.102Z,38.8
2022-12-16T07:27:36.559Z,38.9
2022-12-16T07:33:19.894Z,38.9
2022-12-16T07:39:03.250Z,38.8
2022-12-16T07:44:43.262Z,38.8
2022-12-16T07:50:25.026Z,38.8
2022-12-16T07:56:03.825Z,38.7
2022-12-16T08:49:46.827Z,38.6
2022-12-16T08:55:29.601Z,37.4
2022-12-16T09:01:08.066Z,47.8
2022-12-16T09:06:40.040Z,51.6
2022-12-16T09:12:21.017Z,53.7
2022-12-16T09:18:00.660Z,54.7
2022-12-16T09:23:44.247Z,55.7
2022-12-16T09:29:24.701Z,56.6
2022-12-16T09:35:10.119Z,57.5
2022-12-16T09:40:53.620Z,58.2
2022-12-16T09:46:36.804Z,59.1
2022-12-16T09:52:18.577Z,59.5
2022-12-16T09:57:57.137Z,60.1
2022-12-16T10:03:25.397Z,60.7
2022-12-16T10:09:08.875Z,61.2
2022-12-16T10:14:52.514Z,61.7
2022-12-16T10:20:41.903Z,62.1
2022-12-16T10:26:09.829Z,62.4
2022-12-16T10:31:51.984Z,62.9
2022-12-16T10:37:25.689Z,63.1
2022-12-16T10:43:06.297Z,63.5
2022-12-16T10:48:53.745Z,63.9
2022-12-16T10:54:43.658Z,64.3
2022-12-16T11:00:13.522Z,64.6
2022-12-16T11:05:56.090Z,64.4
2022-12-16T11:11:34.679Z,63.7
2022-12-16T11:17:42.372Z,64.1
2022-12-16T11:23:27.317Z,64.4
2022-12-16T11:29:07.920Z,64.5
2022-12-16T11:34:48.500Z,64.8
2022-12-16T11:40:26.062Z,64.7
2022-12-16T11:46:15.616Z,64.6
2022-12-16T11:58:15.436Z,64.6
2022-12-16T12:03:45.906Z,64.1
2022-12-16T12:09:25.457Z,64.1
2022-12-16T12:15:09.434Z,63.4
2022-12-16T12:20:50.493Z,62.9
2022-12-16T12:26:34.793Z,62.7
2022-12-16T12:32:12.921Z,62.4
2022-12-16T12:37:58.737Z,62.8
2022-12-16T12:43:22.891Z,61.9
2022-12-16T12:54:31.558Z,60.9
2022-12-16T13:00:18.493Z,60.4
2022-12-16T13:05:59.103Z,60.4
2022-12-16T13:11:38.554Z,59.2
2022-12-16T13:17:25.019Z,58
2022-12-16T13:22:52.960Z,56.4
2022-12-16T13:28:31.796Z,55.3
2022-12-16T13:34:12.791Z,53.6
2022-12-16T13:39:59.296Z,50.3
2022-12-16T13:45:38.270Z,49
2022-12-16T13:51:19.412Z,46.6
2022-12-16T13:57:04.005Z,45.8
2022-12-16T14:02:33.913Z,45.3
2022-12-16T14:08:14.138Z,44.9
2022-12-16T14:13:39.041Z,44.4
2022-12-16T14:19:17.820Z,43.9
2022-12-16T14:25:28.074Z,42.3
2022-12-16T14:31:06.062Z,41.7
2022-12-16T14:36:45.771Z,29.7
2022-12-16T14:42:27.857Z,26.3
2022-12-16T14:47:50.801Z,23.9
2022-12-16T14:53:37.310Z,22.9
2022-12-16T14:59:16.507Z,23.1
2022-12-16T15:04:47.108Z,24.1
2022-12-16T15:10:35.648Z,25
2022-12-16T15:16:16.062Z,25.8
2022-12-16T15:21:58.862Z,26.4
2022-12-16T15:27:43.264Z,26.8
2022-12-16T15:33:25.895Z,27.1
2022-12-16T15:44:16.337Z,27.4
2022-12-16T15:49:56.944Z,27.5
2022-12-16T15:55:37.070Z,27.5
2022-12-16T16:01:20.527Z,27.5
2022-12-16T16:06:49.310Z,27.5
2022-12-16T16:12:33.709Z,27.5
2022-12-16T16:18:20.101Z,27.5
2022-12-16T16:23:45.421Z,27.5
2022-12-16T16:29:12.243Z,27.4
2022-12-16T16:34:50.896Z,27.4
2022-12-16T16:39:58.786Z,27.4
2022-12-16T16:45:41.932Z,27.4
2022-12-16T16:56:36.618Z,27.3
2022-12-16T17:02:15.460Z,27.3
2022-12-16T17:08:08.573Z,27.3
2022-12-16T17:13:53.330Z,27.3
2022-12-16T17:19:37.316Z,27.2
2022-12-16T17:25:21.408Z,27.2
2022-12-16T17:31:04.554Z,27.1
2022-12-16T17:36:48.256Z,27.2
2022-12-16T17:41:55.444Z,27.1
2022-12-16T17:47:35.132Z,27.1
2022-12-16T17:53:16.277Z,27.1
2022-12-16T17:58:54.723Z,27.1
2022-12-16T18:04:35.006Z,27
2022-12-16T18:15:06.885Z,27
2022-12-16T18:20:30.109Z,26.9
2022-12-16T18:31:17.655Z,26.9
2022-12-16T18:36:59.803Z,26.9
2022-12-16T18:42:40.074Z,26.9
2022-12-16T18:59:31.712Z,26.8
2022-12-16T19:05:11.799Z,26.8
2022-12-16T19:27:15.425Z,26.8
2022-12-16T23:37:56.939Z,32.1
2022-12-16T23:43:38.494Z,32.1
2022-12-16T23:54:51.806Z,32
